Time;durP1;ratioP1;P1;durP2;ratioP2;P2;SDS_P1;SDS_P2;PMS_P1;PMS_P2;Temp;Humidity;BMP_temperature;BMP_pressure;BME280_temperature;BME280_humidity;BME280_pressure;Samples;Min_cycle;Max_cycle;Signal;HPM_P1;HPM_P2
2022/08/13 00:01:38;;;;;;;6.22;2.70;;;;;;;;;;5099869;28;20131;-64
2022/08/13 00:04:05;;;;;;;6.70;2.90;;;;;;;;;;5101188;28;20132;-64
2022/08/13 00:09:18;;;;;;;6.10;2.75;;;;;;;;;;5089862;28;20189;-63
2022/08/13 00:14:32;;;;;;;7.00;2.88;;;;;;;;;;5103446;28;20100;-64
2022/08/13 00:16:59;;;;;;;7.50;2.95;;;;;;;;;;5104786;28;20056;-63
2022/08/13 00:19:30;;;;;;;5.18;2.50;;;;;;;;;;5078856;28;20503;-63
2022/08/13 00:21:57;;;;;;;9.10;2.97;;;;;;;;;;5102216;28;20488;-64
2022/08/13 00:24:26;;;;;;;4.28;2.92;;;;;;;;;;5084993;28;20450;-63
2022/08/13 00:26:59;;;;;;;4.45;2.97;;;;;;;;;;5094679;28;20051;-64
2022/08/13 00:29:26;;;;;;;4.22;2.85;;;;;;;;;;5099901;28;20048;-63
2022/08/13 00:31:53;;;;;;;3.92;2.90;;;;;;;;;;5101117;28;20036;-63
2022/08/13 00:34:21;;;;;;;8.88;2.80;;;;;;;;;;5103489;28;20048;-64
2022/08/13 00:36:48;;;;;;;6.85;3.25;;;;;;;;;;5098882;28;20055;-63
2022/08/13 00:39:15;;;;;;;5.13;2.92;;;;;;;;;;5105646;28;20522;-63
2022/08/13 00:41:45;;;;;;;6.25;2.88;;;;;;;;;;5103861;28;20044;-63
2022/08/13 00:44:13;;;;;;;6.38;3.22;;;;;;;;;;5096688;28;20704;-63
2022/08/13 00:46:41;;;;;;;6.70;3.30;;;;;;;;;;5100934;28;20054;-63
2022/08/13 00:49:08;;;;;;;5.75;3.33;;;;;;;;;;5104460;28;20051;-64
2022/08/13 00:51:37;;;;;;;6.93;3.30;;;;;;;;;;5079640;28;20054;-63
2022/08/13 00:54:06;;;;;;;4.55;2.72;;;;;;;;;;5104823;28;20047;-63
2022/08/13 00:56:35;;;;;;;7.20;3.10;;;;;;;;;;5100853;28;20082;-63
2022/08/13 00:59:10;;;;;;;4.43;3.50;;;;;;;;;;5100745;28;20682;-64
2022/08/13 01:01:38;;;;;;;6.82;3.33;;;;;;;;;;5105088;28;20131;-63
2022/08/13 01:04:06;;;;;;;3.47;3.15;;;;;;;;;;5098433;28;20087;-63
2022/08/13 01:06:33;;;;;;;4.05;3.22;;;;;;;;;;5102736;28;20056;-63
2022/08/13 01:09:00;;;;;;;5.32;2.90;;;;;;;;;;5102559;28;20055;-63
2022/08/13 01:11:29;;;;;;;5.13;3.22;;;;;;;;;;5105623;28;20048;-63
2022/08/13 01:13:58;;;;;;;8.98;3.70;;;;;;;;;;5101685;28;20148;-63
2022/08/13 01:16:28;;;;;;;5.05;3.63;;;;;;;;;;5094800;28;20083;-63
2022/08/13 01:18:56;;;;;;;5.55;3.20;;;;;;;;;;5098326;28;20065;-63
2022/08/13 01:21:23;;;;;;;5.47;3.50;;;;;;;;;;5102807;28;20060;-63
2022/08/13 01:23:53;;;;;;;5.78;3.72;;;;;;;;;;5101590;28;20048;-63
2022/08/13 01:26:22;;;;;;;8.23;3.47;;;;;;;;;;5104205;28;20051;-63
2022/08/13 01:28:51;;;;;;;6.40;3.80;;;;;;;;;;5083194;28;20058;-63
2022/08/13 01:31:19;;;;;;;6.25;4.20;;;;;;;;;;5083770;28;20078;-64
2022/08/13 01:33:47;;;;;;;10.70;4.22;;;;;;;;;;5093417;28;20055;-63
2022/08/13 01:36:14;;;;;;;12.32;4.32;;;;;;;;;;5100142;28;20101;-64
2022/08/13 01:38:42;;;;;;;9.82;4.10;;;;;;;;;;5103906;28;21102;-63
2022/08/13 01:41:11;;;;;;;7.35;4.05;;;;;;;;;;5097394;28;20544;-63
2022/08/13 01:43:40;;;;;;;7.18;4.07;;;;;;;;;;5103815;28;20055;-63
2022/08/13 01:46:08;;;;;;;7.38;4.05;;;;;;;;;;5101566;28;20051;-63
2022/08/13 01:51:24;;;;;;;7.55;4.20;;;;;;;;;;5103313;28;20756;-63
2022/08/13 01:53:52;;;;;;;10.10;3.97;;;;;;;;;;5103258;28;20559;-63
2022/08/13 01:56:22;;;;;;;5.25;4.32;;;;;;;;;;5099321;28;20040;-64
2022/08/13 01:58:50;;;;;;;6.03;4.63;;;;;;;;;;5102196;28;20498;-63
2022/08/13 02:01:18;;;;;;;11.35;5.05;;;;;;;;;;5078281;28;20056;-64
2022/08/13 02:03:49;;;;;;;6.63;4.43;;;;;;;;;;5096861;28;20050;-63
2022/08/13 02:06:22;;;;;;;9.70;4.60;;;;;;;;;;5098449;28;20131;-63
2022/08/13 02:08:51;;;;;;;8.70;4.15;;;;;;;;;;5100298;28;20062;-63
2022/08/13 02:11:18;;;;;;;6.93;5.03;;;;;;;;;;5105382;28;20472;-63
2022/08/13 02:13:48;;;;;;;12.35;5.03;;;;;;;;;;5101527;28;20111;-63
2022/08/13 02:16:16;;;;;;;6.32;4.95;;;;;;;;;;5103440;28;20513;-63
2022/08/13 02:18:43;;;;;;;13.38;4.63;;;;;;;;;;5101207;28;20163;-63
2022/08/13 02:21:11;;;;;;;9.80;4.70;;;;;;;;;;5108697;28;20051;-63
2022/08/13 02:23:39;;;;;;;9.95;4.68;;;;;;;;;;5086359;28;20109;-63
2022/08/13 02:26:06;;;;;;;11.38;5.40;;;;;;;;;;5107415;28;20762;-63
2022/08/13 02:28:39;;;;;;;10.55;4.72;;;;;;;;;;5104516;28;20047;-63
2022/08/13 02:31:08;;;;;;;6.68;4.55;;;;;;;;;;5103212;28;20055;-63
2022/08/13 02:33:37;;;;;;;5.75;4.78;;;;;;;;;;5097261;28;20056;-63
2022/08/13 02:36:10;;;;;;;6.60;4.72;;;;;;;;;;5094676;28;20052;-63
2022/08/13 02:38:37;;;;;;;;;;;;;;;;;;5097007;28;20051;-63
2022/08/13 02:43:50;;;;;;;10.75;5.10;;;;;;;;;;5101284;28;20050;-63
2022/08/13 02:46:21;;;;;;;7.43;4.95;;;;;;;;;;5105645;28;20055;-63
2022/08/13 02:48:49;;;;;;;11.63;5.35;;;;;;;;;;5103505;28;20498;-63
2022/08/13 02:51:16;;;;;;;10.52;5.25;;;;;;;;;;5107271;28;20047;-63
2022/08/13 02:53:43;;;;;;;11.68;4.88;;;;;;;;;;5107514;28;20109;-63
2022/08/13 02:56:11;;;;;;;7.25;4.75;;;;;;;;;;5103891;28;20052;-63
2022/08/13 02:58:39;;;;;;;9.65;5.03;;;;;;;;;;5087753;28;20086;-63
2022/08/13 03:01:10;;;;;;;8.35;5.20;;;;;;;;;;5099412;28;20073;-63
2022/08/13 03:03:39;;;;;;;6.63;4.70;;;;;;;;;;5087179;28;20498;-63
2022/08/13 03:06:08;;;;;;;7.18;5.15;;;;;;;;;;5102403;28;20150;-63
2022/08/13 03:08:36;;;;;;;6.80;4.80;;;;;;;;;;5101858;28;20062;-63
2022/08/13 03:11:04;;;;;;;7.60;5.07;;;;;;;;;;5097063;28;20055;-63
2022/08/13 03:13:33;;;;;;;7.07;4.68;;;;;;;;;;5106549;28;20079;-63
2022/08/13 03:16:02;;;;;;;6.25;4.63;;;;;;;;;;5086631;28;20060;-63
2022/08/13 03:18:29;;;;;;;7.72;5.00;;;;;;;;;;5103151;28;20521;-63
2022/08/13 03:20:58;;;;;;;12.32;5.07;;;;;;;;;;5105454;28;20554;-64
2022/08/13 03:23:27;;;;;;;6.32;4.18;;;;;;;;;;5101905;28;20124;-63
2022/08/13 03:25:55;;;;;;;11.07;5.25;;;;;;;;;;5106754;28;20100;-63
2022/08/13 03:28:25;;;;;;;11.00;5.53;;;;;;;;;;5084873;28;20048;-63
2022/08/13 03:30:52;;;;;;;8.18;4.97;;;;;;;;;;5105442;28;20116;-63
2022/08/13 03:33:19;;;;;;;6.97;5.38;;;;;;;;;;5105436;28;21173;-63
2022/08/13 03:35:47;;;;;;;8.48;5.07;;;;;;;;;;5102369;28;20055;-64
2022/08/13 03:38:16;;;;;;;8.70;5.40;;;;;;;;;;5081625;28;20056;-64
2022/08/13 03:41:01;;;;;;;7.70;5.22;;;;;;;;;;5102321;28;20165;-63
2022/08/13 03:43:30;;;;;;;11.95;4.82;;;;;;;;;;5100614;28;20546;-63
2022/08/13 03:45:58;;;;;;;10.02;4.45;;;;;;;;;;5104109;28;20690;-63
2022/08/13 03:48:26;;;;;;;10.45;5.18;;;;;;;;;;5103963;28;20131;-63
2022/08/13 03:50:55;;;;;;;7.22;4.88;;;;;;;;;;5085054;28;20059;-63
2022/08/13 03:53:24;;;;;;;6.57;4.90;;;;;;;;;;5106050;28;20040;-63
2022/08/13 03:55:51;;;;;;;6.78;4.65;;;;;;;;;;5099521;28;20387;-63
2022/08/13 03:58:21;;;;;;;6.80;4.63;;;;;;;;;;5104132;28;20055;-64
2022/08/13 04:00:49;;;;;;;6.00;4.55;;;;;;;;;;5100837;28;21362;-63
2022/08/13 04:03:19;;;;;;;6.22;4.47;;;;;;;;;;5104974;28;20043;-63
2022/08/13 04:05:47;;;;;;;7.72;4.70;;;;;;;;;;5086887;28;20059;-63
2022/08/13 04:08:14;;;;;;;7.82;4.57;;;;;;;;;;5099576;28;20600;-63
2022/08/13 04:10:42;;;;;;;6.88;4.75;;;;;;;;;;5101876;28;20039;-63
2022/08/13 04:13:14;;;;;;;7.45;4.30;;;;;;;;;;5086960;28;20056;-63
2022/08/13 04:15:42;;;;;;;7.00;4.43;;;;;;;;;;5103223;28;20109;-63
2022/08/13 04:18:11;;;;;;;6.22;4.65;;;;;;;;;;5103932;28;20116;-64
2022/08/13 04:20:39;;;;;;;7.18;4.60;;;;;;;;;;5080713;28;20051;-64
2022/08/13 04:23:09;;;;;;;7.75;4.55;;;;;;;;;;5106512;28;20133;-64
2022/08/13 04:25:36;;;;;;;9.38;4.30;;;;;;;;;;5105496;28;21044;-64
2022/08/13 04:28:07;;;;;;;8.43;4.20;;;;;;;;;;5104873;28;20512;-64
2022/08/13 04:30:41;;;;;;;8.80;4.20;;;;;;;;;;5105447;28;20062;-63
2022/08/13 04:33:10;;;;;;;13.63;4.22;;;;;;;;;;5102475;28;20035;-64
2022/08/13 04:35:38;;;;;;;11.65;3.90;;;;;;;;;;5084678;28;20835;-63
2022/08/13 04:38:06;;;;;;;8.55;3.90;;;;;;;;;;5103645;28;20406;-63
2022/08/13 04:40:34;;;;;;;9.20;4.05;;;;;;;;;;5102447;28;20052;-63
2022/08/13 04:43:02;;;;;;;12.57;4.32;;;;;;;;;;5105512;28;20052;-63
2022/08/13 04:45:31;;;;;;;8.50;3.97;;;;;;;;;;5103975;28;20071;-63
2022/08/13 04:47:59;;;;;;;7.75;4.00;;;;;;;;;;5104210;28;20074;-63
2022/08/13 04:50:26;;;;;;;11.23;4.20;;;;;;;;;;5105324;28;20120;-63
2022/08/13 04:52:54;;;;;;;10.50;4.22;;;;;;;;;;5103586;28;20039;-63
2022/08/13 04:55:21;;;;;;;7.88;3.85;;;;;;;;;;5102958;28;20051;-63
2022/08/13 04:57:49;;;;;;;7.00;3.83;;;;;;;;;;5105613;28;20047;-63
2022/08/13 05:00:16;;;;;;;7.28;3.97;;;;;;;;;;5104817;28;20071;-63
2022/08/13 05:02:46;;;;;;;11.48;3.85;;;;;;;;;;5086616;28;20043;-63
2022/08/13 05:05:14;;;;;;;6.57;4.18;;;;;;;;;;5104560;28;20051;-63
2022/08/13 05:07:49;;;;;;;9.05;4.15;;;;;;;;;;5085478;28;20529;-63
2022/08/13 05:10:16;;;;;;;12.13;4.07;;;;;;;;;;5098825;28;20075;-63
2022/08/13 05:12:44;;;;;;;7.95;3.95;;;;;;;;;;5104857;28;20520;-63
2022/08/13 05:15:12;;;;;;;7.60;3.53;;;;;;;;;;5104940;28;20044;-63
2022/08/13 05:17:40;;;;;;;6.75;3.85;;;;;;;;;;5099643;28;20055;-63
2022/08/13 05:20:13;;;;;;;5.63;3.58;;;;;;;;;;5098017;28;20070;-63
2022/08/13 05:22:40;;;;;;;9.20;3.80;;;;;;;;;;5099476;28;20051;-63
2022/08/13 05:25:08;;;;;;;7.13;3.75;;;;;;;;;;5101267;28;20059;-64
2022/08/13 05:27:36;;;;;;;11.23;4.18;;;;;;;;;;5102742;28;20482;-63
2022/08/13 05:30:04;;;;;;;11.13;3.92;;;;;;;;;;5102662;28;20048;-63
2022/08/13 05:32:31;;;;;;;6.65;4.03;;;;;;;;;;5098219;28;20043;-63
2022/08/13 05:34:59;;;;;;;6.03;3.45;;;;;;;;;;5097237;28;20050;-64
2022/08/13 05:37:29;;;;;;;5.97;3.30;;;;;;;;;;5096701;28;20044;-64
2022/08/13 05:39:56;;;;;;;6.68;3.65;;;;;;;;;;5086955;28;20051;-63
2022/08/13 05:42:24;;;;;;;5.47;3.15;;;;;;;;;;5102559;28;20621;-64
2022/08/13 05:44:54;;;;;;;6.18;3.60;;;;;;;;;;5102617;28;20044;-64
2022/08/13 05:47:21;;;;;;;8.02;3.38;;;;;;;;;;5101327;28;20454;-64
2022/08/13 05:49:48;;;;;;;5.28;3.17;;;;;;;;;;5104178;28;20043;-63
2022/08/13 05:52:15;;;;;;;7.05;3.75;;;;;;;;;;5108880;28;20050;-63
2022/08/13 05:54:44;;;;;;;6.28;3.40;;;;;;;;;;5103116;28;20494;-63
2022/08/13 05:57:11;;;;;;;5.75;2.80;;;;;;;;;;5103067;28;20063;-64
2022/08/13 06:05:07;;;;;;;7.07;3.35;;;;;;;;;;5108187;28;20096;-63
2022/08/13 06:07:35;;;;;;;5.80;2.72;;;;;;;;;;5106999;28;20043;-63
2022/08/13 06:10:03;;;;;;;4.15;2.85;;;;;;;;;;5104556;27;20090;-63
2022/08/13 06:12:31;;;;;;;8.25;3.00;;;;;;;;;;5100503;28;20044;-63
2022/08/13 06:14:58;;;;;;;8.55;2.72;;;;;;;;;;5106515;28;20051;-63
2022/08/13 06:17:25;;;;;;;5.13;2.80;;;;;;;;;;5097657;28;20040;-64
2022/08/13 06:19:53;;;;;;;6.53;2.72;;;;;;;;;;5082054;28;20052;-63
2022/08/13 06:22:21;;;;;;;6.53;2.65;;;;;;;;;;5101254;28;20063;-63
2022/08/13 06:24:50;;;;;;;4.90;3.00;;;;;;;;;;5103725;28;20059;-63
2022/08/13 06:27:18;;;;;;;8.75;3.10;;;;;;;;;;5101849;28;20055;-63
2022/08/13 06:29:47;;;;;;;6.82;2.63;;;;;;;;;;5103737;28;20052;-63
2022/08/13 06:32:15;;;;;;;3.95;2.63;;;;;;;;;;5101372;28;20163;-63
2022/08/13 06:34:43;;;;;;;3.75;2.40;;;;;;;;;;5099218;28;20044;-64
2022/08/13 06:37:10;;;;;;;4.85;2.40;;;;;;;;;;5103637;28;20461;-63
2022/08/13 06:39:38;;;;;;;7.95;2.53;;;;;;;;;;5105130;28;20133;-63
2022/08/13 06:42:06;;;;;;;7.60;2.50;;;;;;;;;;5100808;28;20067;-63
2022/08/13 06:44:35;;;;;;;8.85;2.10;;;;;;;;;;5103502;28;20443;-64
2022/08/13 06:47:03;;;;;;;3.72;2.20;;;;;;;;;;5105278;28;20051;-63
2022/08/13 06:49:31;;;;;;;3.38;2.13;;;;;;;;;;5078978;28;20554;-63
2022/08/13 06:51:58;;;;;;;4.35;2.40;;;;;;;;;;5105550;28;20051;-63
2022/08/13 06:54:26;;;;;;;5.60;1.90;;;;;;;;;;5104011;28;20052;-63
2022/08/13 06:56:53;;;;;;;8.68;2.53;;;;;;;;;;5107043;28;20048;-64
2022/08/13 06:59:21;;;;;;;7.45;2.35;;;;;;;;;;5103751;28;20130;-64
2022/08/13 07:01:49;;;;;;;6.32;2.08;;;;;;;;;;5107118;28;20051;-64
2022/08/13 07:04:20;;;;;;;2.80;2.00;;;;;;;;;;5087319;28;20072;-64
2022/08/13 07:06:48;;;;;;;9.07;2.10;;;;;;;;;;5090018;28;20112;-63
2022/08/13 07:09:17;;;;;;;5.32;2.00;;;;;;;;;;5086475;28;20055;-63
2022/08/13 07:11:45;;;;;;;4.80;2.20;;;;;;;;;;5106708;28;20058;-63
2022/08/13 07:14:13;;;;;;;2.90;2.00;;;;;;;;;;5102039;28;20047;-64
2022/08/13 07:16:42;;;;;;;4.55;1.80;;;;;;;;;;5103015;28;20083;-64
2022/08/13 07:19:11;;;;;;;5.95;1.75;;;;;;;;;;5104703;28;20074;-64
2022/08/13 07:21:39;;;;;;;6.72;1.80;;;;;;;;;;5100722;28;20058;-63
2022/08/13 07:24:08;;;;;;;4.15;1.80;;;;;;;;;;5081869;28;20114;-64
2022/08/13 07:26:36;;;;;;;3.75;1.80;;;;;;;;;;5106168;28;20056;-64
2022/08/13 07:29:05;;;;;;;3.53;2.25;;;;;;;;;;5101322;28;20048;-63
2022/08/13 07:31:33;;;;;;;5.10;1.70;;;;;;;;;;5099821;28;20048;-64
2022/08/13 07:34:04;;;;;;;8.77;2.28;;;;;;;;;;5084006;28;20504;-63
2022/08/13 07:36:33;;;;;;;3.88;1.40;;;;;;;;;;5087372;28;20147;-63
2022/08/13 07:39:02;;;;;;;2.30;1.65;;;;;;;;;;5102085;28;20643;-64
2022/08/13 07:41:29;;;;;;;9.80;1.70;;;;;;;;;;5086583;28;20086;-63
2022/08/13 07:43:57;;;;;;;8.30;1.77;;;;;;;;;;5105720;28;20511;-63
2022/08/13 07:46:24;;;;;;;6.57;1.83;;;;;;;;;;5100863;28;20053;-64
2022/08/13 07:48:52;;;;;;;8.75;1.80;;;;;;;;;;5099360;28;20059;-64
2022/08/13 07:51:20;;;;;;;5.35;1.77;;;;;;;;;;5106289;28;20047;-63
2022/08/13 07:53:50;;;;;;;7.00;1.38;;;;;;;;;;5104291;28;20043;-63
2022/08/13 07:56:19;;;;;;;2.83;1.50;;;;;;;;;;5106305;28;20051;-64
2022/08/13 07:58:46;;;;;;;3.55;1.63;;;;;;;;;;5104349;28;20493;-64
2022/08/13 08:01:14;;;;;;;7.88;1.50;;;;;;;;;;5095608;28;20048;-64
2022/08/13 08:03:42;;;;;;;2.45;1.35;;;;;;;;;;5102885;28;20506;-64
2022/08/13 08:06:18;;;;;;;8.55;1.48;;;;;;;;;;5090721;28;20498;-64
2022/08/13 08:08:46;;;;;;;8.23;1.88;;;;;;;;;;5088121;28;20554;-64
2022/08/13 08:12:30;;;;;;;2.65;1.58;;;;;;;;;;5096543;28;20075;-64
2022/08/13 08:14:01;;;;;;;2.00;1.27;;;;;;;;;;5097398;28;20052;-64
2022/08/13 08:16:30;;;;;;;2.83;1.45;;;;;;;;;;5098942;28;20043;-64
2022/08/13 08:18:58;;;;;;;6.57;1.60;;;;;;;;;;5101050;28;20130;-63
2022/08/13 08:21:25;;;;;;;3.10;1.48;;;;;;;;;;5095991;28;20123;-64
2022/08/13 08:23:56;;;;;;;10.57;1.60;;;;;;;;;;5100385;28;20046;-64
2022/08/13 08:26:26;;;;;;;6.45;1.50;;;;;;;;;;5096453;28;20050;-64
2022/08/13 08:28:54;;;;;;;15.02;1.70;;;;;;;;;;5096999;28;20058;-63
2022/08/13 08:31:21;;;;;;;5.85;1.67;;;;;;;;;;5098007;28;20125;-64
2022/08/13 08:33:48;;;;;;;3.85;1.33;;;;;;;;;;5074759;28;20043;-64
2022/08/13 08:36:16;;;;;;;4.82;1.30;;;;;;;;;;5097149;28;20238;-64
2022/08/13 08:44:23;;;;;;;9.57;1.48;;;;;;;;;;5099499;28;20040;-64
2022/08/13 08:46:51;;;;;;;2.85;1.33;;;;;;;;;;5095912;28;20054;-63
2022/08/13 08:49:20;;;;;;;3.92;1.20;;;;;;;;;;5096356;28;20577;-64
2022/08/13 08:51:48;;;;;;;5.57;1.45;;;;;;;;;;5080571;28;20471;-64
2022/08/13 08:54:15;;;;;;;2.25;1.20;;;;;;;;;;5098815;28;20043;-64
2022/08/13 08:56:44;;;;;;;7.28;1.50;;;;;;;;;;5091912;28;20398;-64
2022/08/13 08:59:13;;;;;;;4.60;1.50;;;;;;;;;;5097312;28;20048;-64
2022/08/13 09:01:42;;;;;;;5.93;1.40;;;;;;;;;;5094719;28;20048;-64
2022/08/13 09:04:11;;;;;;;4.80;1.15;;;;;;;;;;5101444;28;20051;-63
2022/08/13 09:06:38;;;;;;;4.03;1.20;;;;;;;;;;5096320;28;20858;-64
2022/08/13 09:09:07;;;;;;;6.72;1.20;;;;;;;;;;5074465;28;20055;-64
2022/08/13 09:11:35;;;;;;;7.30;1.00;;;;;;;;;;5101241;28;20487;-64
2022/08/13 09:14:08;;;;;;;2.60;1.10;;;;;;;;;;5078967;28;20055;-64
2022/08/13 09:16:36;;;;;;;4.22;1.20;;;;;;;;;;5095515;28;20074;-64
2022/08/13 09:19:03;;;;;;;5.30;1.20;;;;;;;;;;5093862;28;20044;-64
2022/08/13 09:21:31;;;;;;;4.63;1.20;;;;;;;;;;5098357;28;20055;-64
2022/08/13 09:24:01;;;;;;;7.32;1.20;;;;;;;;;;5105781;28;20063;-64
2022/08/13 09:26:28;;;;;;;4.22;1.15;;;;;;;;;;5100575;28;20104;-64
2022/08/13 09:28:57;;;;;;;7.30;1.20;;;;;;;;;;5101477;28;20507;-64
2022/08/13 09:31:26;;;;;;;4.03;1.80;;;;;;;;;;5100469;28;20588;-64
2022/08/13 09:33:53;;;;;;;3.65;1.00;;;;;;;;;;5102170;28;20060;-64
2022/08/13 09:36:24;;;;;;;2.53;1.10;;;;;;;;;;5105394;28;20091;-64
2022/08/13 09:38:52;;;;;;;1.85;1.02;;;;;;;;;;5108339;28;20047;-64
2022/08/13 09:41:23;;;;;;;11.55;1.63;;;;;;;;;;5107166;28;20521;-64
2022/08/13 09:43:50;;;;;;;2.70;1.10;;;;;;;;;;5103904;28;20048;-64
2022/08/13 09:46:23;;;;;;;9.77;1.15;;;;;;;;;;5103895;28;20054;-64
2022/08/13 09:48:51;;;;;;;;;;;;;;;;;;5089560;28;20105;-64
2022/08/13 09:51:20;;;;;;;3.03;1.48;;;;;;;;;;5105582;28;20385;-64
2022/08/13 09:53:47;;;;;;;3.05;1.20;;;;;;;;;;5101954;28;20101;-64
2022/08/13 09:56:17;;;;;;;7.93;1.33;;;;;;;;;;5099921;28;20555;-64
2022/08/13 09:58:46;;;;;;;3.97;1.17;;;;;;;;;;5098960;28;20452;-64
2022/08/13 10:01:14;;;;;;;3.13;1.30;;;;;;;;;;5101407;28;20051;-64
2022/08/13 10:03:42;;;;;;;4.10;1.30;;;;;;;;;;5100663;28;20135;-64
2022/08/13 10:06:10;;;;;;;1.60;1.25;;;;;;;;;;5089576;28;20055;-64
2022/08/13 10:08:39;;;;;;;6.82;1.30;;;;;;;;;;5103175;28;21434;-64
2022/08/13 10:11:06;;;;;;;4.78;1.00;;;;;;;;;;5080531;28;20113;-64
2022/08/13 10:13:34;;;;;;;3.83;1.20;;;;;;;;;;5101288;28;20077;-64
2022/08/13 10:16:01;;;;;;;4.38;1.25;;;;;;;;;;5099822;28;20056;-64
2022/08/13 10:18:31;;;;;;;2.38;1.08;;;;;;;;;;5106781;28;20439;-64
2022/08/13 10:20:58;;;;;;;4.65;1.13;;;;;;;;;;5102541;28;20051;-64
2022/08/13 10:23:25;;;;;;;2.45;1.08;;;;;;;;;;5104881;28;20108;-64
2022/08/13 10:25:54;;;;;;;7.13;1.20;;;;;;;;;;5104889;28;20403;-64
2022/08/13 10:28:23;;;;;;;3.78;1.00;;;;;;;;;;5105175;28;20104;-64
2022/08/13 10:30:50;;;;;;;3.35;1.20;;;;;;;;;;5100088;28;20048;-64
2022/08/13 10:33:18;;;;;;;3.83;1.33;;;;;;;;;;5098908;28;20044;-64
2022/08/13 10:35:47;;;;;;;3.00;1.13;;;;;;;;;;5103810;28;20136;-64
2022/08/13 10:38:15;;;;;;;6.05;1.25;;;;;;;;;;5107138;28;20091;-64
2022/08/13 10:40:42;;;;;;;5.38;1.35;;;;;;;;;;5087083;28;20638;-64
2022/08/13 10:43:11;;;;;;;2.75;1.10;;;;;;;;;;5103421;28;20059;-64
2022/08/13 10:45:42;;;;;;;4.10;1.20;;;;;;;;;;5104059;28;20061;-63
2022/08/13 10:48:11;;;;;;;3.58;1.10;;;;;;;;;;5099406;28;20140;-64
2022/08/13 10:50:38;;;;;;;4.82;1.38;;;;;;;;;;5104934;28;20062;-63
2022/08/13 10:53:06;;;;;;;2.78;1.33;;;;;;;;;;5104980;28;20120;-64
2022/08/13 10:55:35;;;;;;;3.97;1.20;;;;;;;;;;5096355;28;20506;-64
2022/08/13 10:58:13;;;;;;;5.32;1.10;;;;;;;;;;5082809;28;20062;-64
2022/08/13 11:00:43;;;;;;;4.07;1.17;;;;;;;;;;5101965;28;20531;-64
2022/08/13 11:03:10;;;;;;;4.47;1.10;;;;;;;;;;5107222;28;20653;-64
2022/08/13 11:05:37;;;;;;;4.35;1.17;;;;;;;;;;5095282;28;20051;-64
2022/08/13 11:08:04;;;;;;;9.32;1.30;;;;;;;;;;5095413;28;20445;-64
2022/08/13 11:10:32;;;;;;;2.67;1.30;;;;;;;;;;5102747;28;20100;-64
2022/08/13 11:12:59;;;;;;;4.15;1.13;;;;;;;;;;5101912;28;20093;-64
2022/08/13 11:15:26;;;;;;;4.85;1.10;;;;;;;;;;5105749;28;20530;-64
2022/08/13 11:17:55;;;;;;;3.88;0.95;;;;;;;;;;5107373;28;20048;-64
2022/08/13 11:20:24;;;;;;;2.50;1.05;;;;;;;;;;5104768;28;21596;-65
2022/08/13 11:22:53;;;;;;;3.13;1.20;;;;;;;;;;5079682;28;20059;-64
2022/08/13 11:25:21;;;;;;;5.28;1.25;;;;;;;;;;5100649;28;20478;-64
2022/08/13 11:27:48;;;;;;;6.97;1.15;;;;;;;;;;5085409;28;20044;-64
2022/08/13 11:30:16;;;;;;;3.67;1.30;;;;;;;;;;5087347;28;20121;-64
2022/08/13 11:32:43;;;;;;;2.25;1.27;;;;;;;;;;5100465;28;20090;-65
2022/08/13 11:35:12;;;;;;;2.97;1.20;;;;;;;;;;5102975;28;20047;-65
2022/08/13 11:37:40;;;;;;;1.70;1.17;;;;;;;;;;5081455;28;20059;-64
2022/08/13 11:40:07;;;;;;;1.10;1.00;;;;;;;;;;5103177;28;20067;-64
2022/08/13 11:42:34;;;;;;;3.42;1.20;;;;;;;;;;5100352;28;20048;-64
2022/08/13 11:45:02;;;;;;;1.75;1.20;;;;;;;;;;5099196;28;20051;-64
2022/08/13 11:47:29;;;;;;;2.00;1.10;;;;;;;;;;5104165;28;20059;-64
2022/08/13 11:49:57;;;;;;;8.65;1.55;;;;;;;;;;5103582;28;20164;-65
2022/08/13 11:52:26;;;;;;;2.78;1.83;;;;;;;;;;5098011;28;20462;-65
2022/08/13 11:54:53;;;;;;;2.58;1.33;;;;;;;;;;5098037;28;20044;-65
2022/08/13 11:57:20;;;;;;;2.05;1.40;;;;;;;;;;5105563;28;20048;-64
2022/08/13 11:59:47;;;;;;;2.60;1.40;;;;;;;;;;5102277;28;20528;-65
2022/08/13 12:02:15;;;;;;;2.83;1.30;;;;;;;;;;5080613;28;20047;-64
2022/08/13 12:04:42;;;;;;;1.85;1.38;;;;;;;;;;5102280;28;20083;-65
2022/08/13 12:07:09;;;;;;;8.45;1.73;;;;;;;;;;5105228;28;20051;-65
2022/08/13 12:09:38;;;;;;;2.67;1.40;;;;;;;;;;5099961;28;20089;-65
2022/08/13 12:12:06;;;;;;;3.85;1.50;;;;;;;;;;5103662;28;20750;-65
2022/08/13 12:14:33;;;;;;;3.13;1.50;;;;;;;;;;5104361;28;20054;-65
2022/08/13 12:17:00;;;;;;;3.13;1.50;;;;;;;;;;5102036;28;20043;-65
2022/08/13 12:19:27;;;;;;;3.90;1.58;;;;;;;;;;5099662;28;20054;-65
2022/08/13 12:21:54;;;;;;;7.03;1.63;;;;;;;;;;5103979;28;20076;-65
2022/08/13 12:24:22;;;;;;;5.38;1.73;;;;;;;;;;5077032;28;20092;-65
2022/08/13 12:26:50;;;;;;;3.55;1.60;;;;;;;;;;5100352;28;20043;-65
2022/08/13 12:29:17;;;;;;;6.28;1.60;;;;;;;;;;5080710;28;20077;-65
2022/08/13 12:31:45;;;;;;;2.85;1.63;;;;;;;;;;5101506;28;20096;-65
2022/08/13 12:34:12;;;;;;;2.15;1.70;;;;;;;;;;5099862;28;20044;-65
2022/08/13 12:36:39;;;;;;;4.70;1.60;;;;;;;;;;5097337;28;20105;-65
2022/08/13 12:39:06;;;;;;;2.38;1.88;;;;;;;;;;5100012;28;20056;-65
2022/08/13 12:41:34;;;;;;;1.73;1.63;;;;;;;;;;5101489;28;20056;-65
2022/08/13 12:44:02;;;;;;;2.63;1.60;;;;;;;;;;5086262;28;20055;-65
2022/08/13 12:46:30;;;;;;;4.03;1.70;;;;;;;;;;5081039;28;20043;-65
2022/08/13 12:48:57;;;;;;;3.90;2.03;;;;;;;;;;5099615;28;20128;-65
2022/08/13 12:51:24;;;;;;;3.80;1.70;;;;;;;;;;5102593;28;20056;-65
2022/08/13 12:53:51;;;;;;;3.55;1.80;;;;;;;;;;5100565;28;20039;-65
2022/08/13 12:56:18;;;;;;;2.67;1.73;;;;;;;;;;5102154;28;20048;-66
2022/08/13 12:58:46;;;;;;;2.83;1.90;;;;;;;;;;5105392;28;20490;-65
2022/08/13 13:01:14;;;;;;;5.35;1.83;;;;;;;;;;5102112;28;20094;-65
2022/08/13 13:03:41;;;;;;;4.30;1.92;;;;;;;;;;5103291;28;20070;-66
2022/08/13 13:06:09;;;;;;;2.92;1.90;;;;;;;;;;5106237;28;20450;-65
2022/08/13 13:08:36;;;;;;;2.65;1.83;;;;;;;;;;5095955;28;20055;-65
2022/08/13 13:11:04;;;;;;;4.28;1.90;;;;;;;;;;5100956;28;20056;-65
2022/08/13 13:13:33;;;;;;;2.78;2.00;;;;;;;;;;5099099;28;20073;-65
2022/08/13 13:16:00;;;;;;;5.88;2.00;;;;;;;;;;5096190;28;20032;-65
2022/08/13 13:18:29;;;;;;;3.00;1.80;;;;;;;;;;5105188;28;20521;-65
2022/08/13 13:20:57;;;;;;;3.45;1.90;;;;;;;;;;5085376;28;20060;-65
2022/08/13 13:23:26;;;;;;;3.70;2.00;;;;;;;;;;5102829;28;20043;-66
2022/08/13 13:25:54;;;;;;;11.38;2.80;;;;;;;;;;5082069;28;20054;-65
2022/08/13 13:28:22;;;;;;;7.78;2.20;;;;;;;;;;5104623;28;20104;-65
2022/08/13 13:30:50;;;;;;;4.00;2.25;;;;;;;;;;5100537;28;20048;-65
2022/08/13 13:33:18;;;;;;;5.25;2.40;;;;;;;;;;5104215;28;20109;-65
2022/08/13 13:35:47;;;;;;;6.43;2.30;;;;;;;;;;5101083;28;20048;-65
2022/08/13 13:38:18;;;;;;;6.35;2.22;;;;;;;;;;5096292;28;20686;-65
2022/08/13 13:40:46;;;;;;;5.22;2.28;;;;;;;;;;5100395;28;20051;-65
2022/08/13 13:43:13;;;;;;;3.70;2.30;;;;;;;;;;5104326;28;20055;-65
2022/08/13 13:45:40;;;;;;;3.28;2.20;;;;;;;;;;5101958;28;20045;-65
2022/08/13 13:48:18;;;;;;;3.90;2.35;;;;;;;;;;5102304;28;20047;-65
2022/08/13 13:50:47;;;;;;;2.60;2.40;;;;;;;;;;5103697;28;20144;-65
2022/08/13 13:53:15;;;;;;;2.75;2.30;;;;;;;;;;5104619;28;20052;-65
2022/08/13 13:55:42;;;;;;;2.60;2.40;;;;;;;;;;5103090;28;20047;-65
2022/08/13 13:58:09;;;;;;;3.13;2.20;;;;;;;;;;5098871;28;20055;-66
2022/08/13 14:00:37;;;;;;;5.93;2.50;;;;;;;;;;5099879;28;20073;-65
2022/08/13 14:03:06;;;;;;;4.47;2.70;;;;;;;;;;5100904;28;20097;-66
2022/08/13 14:05:33;;;;;;;4.97;2.65;;;;;;;;;;5098846;28;20050;-65
2022/08/13 14:08:02;;;;;;;3.00;2.50;;;;;;;;;;5103147;28;20055;-65
2022/08/13 14:10:30;;;;;;;3.80;2.58;;;;;;;;;;5099824;28;20088;-65
2022/08/13 14:12:58;;;;;;;6.53;2.47;;;;;;;;;;5104974;28;20059;-65
2022/08/13 14:15:26;;;;;;;3.63;2.50;;;;;;;;;;5104545;28;20112;-65
2022/08/13 14:17:54;;;;;;;3.10;2.60;;;;;;;;;;5107353;28;20050;-65
2022/08/13 14:20:22;;;;;;;3.78;2.63;;;;;;;;;;5104042;28;20079;-65
2022/08/13 14:22:52;;;;;;;3.78;2.40;;;;;;;;;;5106335;28;20451;-65
2022/08/13 14:25:21;;;;;;;4.55;2.47;;;;;;;;;;5107090;28;20053;-66
2022/08/13 14:27:48;;;;;;;2.80;2.60;;;;;;;;;;5107008;28;20074;-65
2022/08/13 14:30:16;;;;;;;3.08;2.55;;;;;;;;;;5103365;28;20550;-65
2022/08/13 14:32:43;;;;;;;2.70;2.50;;;;;;;;;;5103180;28;20043;-65
2022/08/13 14:35:12;;;;;;;2.80;2.50;;;;;;;;;;5101899;28;20093;-65
2022/08/13 14:37:41;;;;;;;5.88;2.58;;;;;;;;;;5087994;28;20047;-65
2022/08/13 14:40:10;;;;;;;4.70;2.83;;;;;;;;;;5103001;28;20506;-65
2022/08/13 14:42:44;;;;;;;2.90;2.70;;;;;;;;;;5103482;28;20055;-66
2022/08/13 14:47:57;;;;;;;6.47;2.70;;;;;;;;;;5107978;28;20055;-65
2022/08/13 14:50:25;;;;;;;2.80;2.60;;;;;;;;;;5101489;28;20093;-65
2022/08/13 14:52:52;;;;;;;3.97;2.70;;;;;;;;;;5106854;28;20040;-66
2022/08/13 14:55:21;;;;;;;3.90;2.80;;;;;;;;;;5098388;28;20176;-66
2022/08/13 14:57:50;;;;;;;3.17;2.70;;;;;;;;;;5105139;28;20126;-65
2022/08/13 15:00:18;;;;;;;3.10;2.90;;;;;;;;;;5102220;28;20051;-66
2022/08/13 15:02:45;;;;;;;3.20;2.90;;;;;;;;;;5103264;28;20036;-66
2022/08/13 15:05:14;;;;;;;6.85;3.00;;;;;;;;;;5102514;28;20075;-66
2022/08/13 15:07:43;;;;;;;3.15;2.90;;;;;;;;;;5098208;28;20113;-65
2022/08/13 15:10:12;;;;;;;3.00;2.75;;;;;;;;;;5098006;28;20125;-65
2022/08/13 15:12:40;;;;;;;5.45;2.90;;;;;;;;;;5105923;28;20047;-65
2022/08/13 15:15:10;;;;;;;3.58;2.83;;;;;;;;;;5102946;28;20134;-65